Time;durP1;ratioP1;P1;durP2;ratioP2;P2;SDS_P1;SDS_P2;PMS_P1;PMS_P2;Temp;Humidity;BMP_temperature;BMP_pressure;BME280_temperature;BME280_humidity;BME280_pressure;Samples;Min_cycle;Max_cycle;Signal;HPM_P1;HPM_P2
2022/09/30 00:00:55;;;;;;;;;;;6.00;99.90;;;;;;5049137;28;20336;-77
2022/09/30 00:03:23;;;;;;;;;;;6.00;99.90;;;;;;5048625;28;20118;-77
2022/09/30 00:05:55;;;;;;;;;;;6.00;99.90;;;;;;5050419;28;19925;-78
2022/09/30 00:08:23;;;;;;;;;;;6.00;99.90;;;;;;5049890;28;19986;-77
2022/09/30 00:10:58;;;;;;;;;;;5.90;99.90;;;;;;5049031;28;19979;-77
2022/09/30 00:13:25;;;;;;;;;;;5.90;99.90;;;;;;5048885;28;19932;-77
2022/09/30 00:15:52;;;;;;;;;;;6.00;99.90;;;;;;5057176;28;19979;-78
2022/09/30 00:18:18;;;;;;;;;;;6.00;99.90;;;;;;5066965;28;19982;-78
2022/09/30 00:20:45;;;;;;;;;;;7.30;99.90;;;;;;5068792;28;19981;-77
2022/09/30 00:23:12;;;;;;;;;;;6.00;99.90;;;;;;5068732;28;19929;-77
2022/09/30 00:25:40;;;;;;;;;;;5.90;99.90;;;;;;5054331;28;20012;-77
2022/09/30 00:28:06;;;;;;;;;;;5.90;99.90;;;;;;5047938;28;19935;-77
2022/09/30 00:30:33;;;;;;;;;;;5.90;99.90;;;;;;5049151;28;19929;-77
2022/09/30 00:33:00;;;;;;;;;;;5.80;99.90;;;;;;5048340;28;19952;-77
2022/09/30 00:35:27;;;;;;;;;;;5.90;99.90;;;;;;5048572;28;19951;-77
2022/09/30 00:37:54;;;;;;;;;;;5.90;99.90;;;;;;5049255;28;20295;-78
2022/09/30 00:40:20;;;;;;;;;;;5.90;99.90;;;;;;5047515;28;20042;-77
2022/09/30 00:42:49;;;;;;;;;;;5.90;99.90;;;;;;5048962;28;20314;-78
2022/09/30 00:45:16;;;;;;;;;;;5.90;99.90;;;;;;5048502;28;19929;-78
2022/09/30 00:47:46;;;;;;;;;;;5.90;99.90;;;;;;5050681;28;19979;-77
2022/09/30 00:50:18;;;;;;;;;;;6.00;99.90;;;;;;5068531;28;19931;-77
2022/09/30 00:52:47;;;;;;;;;;;6.00;99.90;;;;;;5058319;28;19971;-77
2022/09/30 00:55:19;;;;;;;;;;;5.90;99.90;;;;;;5058625;28;19929;-77
2022/09/30 00:57:46;;;;;;;;;;;6.00;99.90;;;;;;5048513;28;19933;-77
2022/09/30 01:00:14;;;;;;;;;;;6.00;99.90;;;;;;5047988;28;19925;-77
2022/09/30 01:02:41;;;;;;;;;;;6.00;99.90;;;;;;5048491;28;19995;-77
2022/09/30 01:05:10;;;;;;;;;;;6.00;99.90;;;;;;5047339;28;19929;-76
2022/09/30 01:07:37;;;;;;;;;;;6.00;99.90;;;;;;5048255;28;19955;-76
2022/09/30 01:10:04;;;;;;;;;;;6.00;99.90;;;;;;5050636;28;19939;-76
2022/09/30 01:12:31;;;;;;;;;;;5.90;99.90;;;;;;5046582;28;19932;-77
2022/09/30 01:14:59;;;;;;;;;;;5.90;99.90;;;;;;5046813;28;20329;-77
2022/09/30 01:17:35;;;;;;;;;;;5.80;99.90;;;;;;5048033;28;19929;-77
2022/09/30 01:20:14;;;;;;;;;;;5.90;99.90;;;;;;5048971;28;20011;-77
2022/09/30 01:22:44;;;;;;;;;;;5.80;99.90;;;;;;5050905;28;19958;-77
2022/09/30 01:25:32;;;;;;;;;;;5.80;99.90;;;;;;5049063;28;20017;-77
2022/09/30 01:28:10;;;;;;;;;;;5.70;99.90;;;;;;5050766;28;20344;-76
2022/09/30 01:30:46;;;;;;;;;;;5.70;99.90;;;;;;5054791;28;19928;-75
2022/09/30 01:33:20;;;;;;;;;;;5.70;99.90;;;;;;5054411;28;19933;-77
2022/09/30 01:35:55;;;;;;;;;;;5.70;99.90;;;;;;5048549;28;20271;-77
2022/09/30 01:38:28;;;;;;;;;;;5.70;99.90;;;;;;5047742;28;19928;-77
2022/09/30 01:41:00;;;;;;;;;;;5.70;99.90;;;;;;5047723;28;19974;-77
2022/09/30 01:43:30;;;;;;;;;;;5.60;99.90;;;;;;5047188;28;19974;-77
2022/09/30 01:46:01;;;;;;;;;;;5.60;99.90;;;;;;5065761;28;19963;-77
2022/09/30 01:48:33;;;;;;;;;;;5.60;99.90;;;;;;5067225;28;20352;-77
2022/09/30 01:51:03;;;;;;;;;;;5.50;99.90;;;;;;5066988;28;20393;-77
2022/09/30 01:53:32;;;;;;;;;;;5.50;99.90;;;;;;5051950;28;19929;-76
2022/09/30 01:56:01;;;;;;;;;;;5.50;99.90;;;;;;5050837;28;19951;-76
2022/09/30 01:58:32;;;;;;;;;;;5.50;99.90;;;;;;5047523;28;20330;-78
2022/09/30 02:01:02;;;;;;;;;;;5.40;99.90;;;;;;5051995;28;19936;-75
2022/09/30 02:03:32;;;;;;;;;;;5.40;99.90;;;;;;5053965;28;20019;-77
2022/09/30 02:06:01;;;;;;;;;;;5.40;99.90;;;;;;5046767;28;19925;-75
2022/09/30 02:08:35;;;;;;;;;;;5.30;99.90;;;;;;5049152;28;20089;-78
2022/09/30 02:11:04;;;;;;;;;;;5.30;99.90;;;;;;5060775;28;19925;-76
2022/09/30 02:13:36;;;;;;;;;;;5.30;99.90;;;;;;5060062;28;19928;-75
2022/09/30 02:16:11;;;;;;;;;;;5.20;99.90;;;;;;5051514;28;19955;-76
2022/09/30 02:18:40;;;;;;;;;;;5.20;99.90;;;;;;5051259;28;19925;-77
2022/09/30 02:21:09;;;;;;;;;;;5.30;99.90;;;;;;5050891;28;19952;-76
2022/09/30 02:23:37;;;;;;;;;;;5.30;99.90;;;;;;5054169;28;20069;-76
2022/09/30 02:26:07;;;;;;;;;;;5.30;99.90;;;;;;5055230;28;19929;-77
2022/09/30 02:28:37;;;;;;;;;;;5.30;99.90;;;;;;5064105;28;19933;-77
2022/09/30 02:31:07;;;;;;;;;;;5.20;99.90;;;;;;5071286;28;19928;-77
2022/09/30 02:33:35;;;;;;;;;;;5.20;99.90;;;;;;5064125;28;19929;-76
2022/09/30 02:36:05;;;;;;;;;;;5.20;99.90;;;;;;5053431;28;19936;-77
2022/09/30 02:38:36;;;;;;;;;;;5.20;99.90;;;;;;5052174;28;19929;-77
2022/09/30 02:41:06;;;;;;;;;;;5.20;99.90;;;;;;5052807;28;20372;-77
2022/09/30 02:43:32;;;;;;;;;;;5.20;99.90;;;;;;5050501;28;19925;-77
2022/09/30 02:46:03;;;;;;;;;;;5.20;99.90;;;;;;5051004;28;19929;-77
2022/09/30 02:48:38;;;;;;;;;;;5.30;99.90;;;;;;5051768;28;19928;-77
2022/09/30 02:51:10;;;;;;;;;;;5.30;99.90;;;;;;5064296;28;19928;-77
2022/09/30 02:53:40;;;;;;;;;;;5.30;99.90;;;;;;5050702;28;19928;-77
2022/09/30 02:56:14;;;;;;;;;;;5.40;99.90;;;;;;5051067;28;19925;-77
2022/09/30 02:58:42;;;;;;;;;;;5.40;99.90;;;;;;5035355;28;19970;-76
2022/09/30 03:01:10;;;;;;;;;;;5.40;99.90;;;;;;5050323;28;19931;-77
2022/09/30 03:03:40;;;;;;;;;;;5.40;99.90;;;;;;5049521;28;20232;-77
2022/09/30 03:06:07;;;;;;;;;;;5.40;99.90;;;;;;5052596;28;19932;-76
2022/09/30 03:08:34;;;;;;;;;;;5.40;99.90;;;;;;5062269;28;19929;-76
2022/09/30 03:11:00;;;;;;;;;;;5.40;99.90;;;;;;5050288;28;19970;-77
2022/09/30 03:13:36;;;;;;;;;;;5.40;99.90;;;;;;5045692;28;20164;-77
2022/09/30 03:16:08;;;;;;;;;;;5.40;99.90;;;;;;5047706;28;20349;-77
2022/09/30 03:18:47;;;;;;;;;;;5.40;99.90;;;;;;5042518;28;19937;-76
2022/09/30 03:21:21;;;;;;;;;;;5.30;99.90;;;;;;5050295;28;19925;-78
2022/09/30 03:24:04;;;;;;;;;;;5.30;99.90;;;;;;5052049;28;19986;-78
2022/09/30 03:26:36;;;;;;;;;;;5.40;99.90;;;;;;5048370;28;20424;-78
2022/09/30 03:29:08;;;;;;;;;;;5.40;99.90;;;;;;5050623;28;20335;-76
2022/09/30 03:31:42;;;;;;;;;;;5.40;99.90;;;;;;5050253;28;19947;-77
2022/09/30 03:34:16;;;;;;;;;;;5.40;99.90;;;;;;5050433;28;19929;-77
2022/09/30 03:36:46;;;;;;;;;;;5.50;99.90;;;;;;5053072;28;19932;-76
2022/09/30 03:39:22;;;;;;;;;;;5.40;99.90;;;;;;5060613;28;20312;-76
2022/09/30 03:41:53;;;;;;;;;;;5.40;99.90;;;;;;5046993;28;19964;-77
2022/09/30 03:44:22;;;;;;;;;;;5.40;99.90;;;;;;5049284;28;19928;-77
2022/09/30 03:46:50;;;;;;;;;;;5.40;99.90;;;;;;5047159;28;19933;-78
2022/09/30 03:49:21;;;;;;;;;;;5.40;99.90;;;;;;5050576;28;20398;-77
2022/09/30 03:51:47;;;;;;;;;;;5.40;99.90;;;;;;5050558;28;19968;-77
2022/09/30 03:54:15;;;;;;;;;;;5.30;99.90;;;;;;5050262;28;19978;-77
2022/09/30 03:56:42;;;;;;;;;;;5.30;99.90;;;;;;5045978;28;20343;-77
2022/09/30 03:59:12;;;;;;;;;;;5.30;99.90;;;;;;5046152;28;20437;-77
2022/09/30 04:01:39;;;;;;;;;;;5.20;99.90;;;;;;5049020;28;20350;-77
2022/09/30 04:04:06;;;;;;;;;;;5.20;99.90;;;;;;5056904;28;19931;-77
2022/09/30 04:06:34;;;;;;;;;;;5.10;99.90;;;;;;5046035;28;19928;-77
2022/09/30 04:09:01;;;;;;;;;;;5.10;99.90;;;;;;5049086;28;19929;-77
2022/09/30 04:11:31;;;;;;;;;;;5.10;99.90;;;;;;5048461;28;19929;-77
2022/09/30 04:13:58;;;;;;;;;;;5.10;99.90;;;;;;5051703;28;19933;-77
2022/09/30 04:16:24;;;;;;;;;;;5.20;99.90;;;;;;5048883;28;19929;-77
2022/09/30 04:18:51;;;;;;;;;;;5.10;99.90;;;;;;5049271;28;20058;-77
2022/09/30 04:21:17;;;;;;;;;;;5.10;99.90;;;;;;5048678;28;19929;-77
2022/09/30 04:23:45;;;;;;;;;;;5.20;99.90;;;;;;5048874;28;19932;-77
2022/09/30 04:26:13;;;;;;;;;;;5.10;99.90;;;;;;5047508;28;19936;-80
2022/09/30 04:28:40;;;;;;;;;;;5.00;99.90;;;;;;5044147;28;20400;-77
2022/09/30 04:31:07;;;;;;;;;;;5.00;99.90;;;;;;5048600;28;19998;-77
2022/09/30 04:33:34;;;;;;;;;;;5.00;99.90;;;;;;5049458;28;19928;-76
2022/09/30 04:36:00;;;;;;;;;;;4.90;99.90;;;;;;5050933;28;19925;-78
2022/09/30 04:38:28;;;;;;;;;;;4.90;99.90;;;;;;5050466;28;20357;-77
2022/09/30 04:40:56;;;;;;;;;;;4.80;99.90;;;;;;5050916;28;19940;-77
2022/09/30 04:43:24;;;;;;;;;;;4.80;99.90;;;;;;5049220;28;19983;-74
2022/09/30 04:45:52;;;;;;;;;;;4.80;99.90;;;;;;5041339;28;19987;-77
2022/09/30 04:48:20;;;;;;;;;;;4.80;99.90;;;;;;5047909;28;19928;-76
2022/09/30 04:50:46;;;;;;;;;;;4.90;99.90;;;;;;5049355;28;19935;-77
2022/09/30 04:53:13;;;;;;;;;;;4.90;99.90;;;;;;5052574;28;19935;-77
2022/09/30 04:55:40;;;;;;;;;;;4.90;99.90;;;;;;5049420;28;19928;-77
2022/09/30 04:58:08;;;;;;;;;;;4.90;99.90;;;;;;5040239;28;19947;-77
2022/09/30 05:00:35;;;;;;;;;;;5.00;99.90;;;;;;5048751;28;19925;-77
2022/09/30 05:03:02;;;;;;;;;;;5.00;99.90;;;;;;5049251;28;19948;-77
2022/09/30 05:05:28;;;;;;;;;;;5.10;99.90;;;;;;5057566;28;20007;-77
2022/09/30 05:07:59;;;;;;;;;;;5.10;99.90;;;;;;5048576;28;20378;-77
2022/09/30 05:10:26;;;;;;;;;;;5.10;99.90;;;;;;5047509;28;20446;-76
2022/09/30 05:12:52;;;;;;;;;;;5.10;99.90;;;;;;5048528;28;19979;-78
2022/09/30 05:15:20;;;;;;;;;;;4.40;99.90;;;;;;5048634;28;20444;-77
2022/09/30 05:17:48;;;;;;;;;;;5.00;99.90;;;;;;5028133;28;19959;-77
2022/09/30 05:20:15;;;;;;;;;;;5.10;99.90;;;;;;5028578;28;19944;-78
2022/09/30 05:22:42;;;;;;;;;;;5.10;99.90;;;;;;5028341;28;20489;-77
2022/09/30 05:25:09;;;;;;;;;;;5.10;99.90;;;;;;5038826;28;19932;-78
2022/09/30 05:27:36;;;;;;;;;;;5.10;99.90;;;;;;5047059;28;19932;-76
2022/09/30 05:30:03;;;;;;;;;;;5.10;99.90;;;;;;5050721;28;19936;-77
2022/09/30 05:32:31;;;;;;;;;;;5.10;99.90;;;;;;5048306;28;19944;-77
2022/09/30 05:34:57;;;;;;;;;;;5.10;99.90;;;;;;5041018;28;19979;-77
2022/09/30 05:37:24;;;;;;;;;;;5.20;99.90;;;;;;5047401;28;19936;-78
2022/09/30 05:39:51;;;;;;;;;;;5.20;99.90;;;;;;5048121;28;19933;-77
2022/09/30 05:42:17;;;;;;;;;;;5.20;99.90;;;;;;5048028;28;19978;-77
2022/09/30 05:44:45;;;;;;;;;;;5.20;99.90;;;;;;5047981;28;19929;-76
2022/09/30 05:47:11;;;;;;;;;;;5.20;99.90;;;;;;5047790;28;20390;-77
2022/09/30 05:49:40;;;;;;;;;;;5.20;99.90;;;;;;5048178;28;19925;-75
2022/09/30 05:52:07;;;;;;;;;;;5.30;99.90;;;;;;5049994;28;19929;-74
2022/09/30 05:54:34;;;;;;;;;;;5.00;99.90;;;;;;5050030;28;19932;-77
2022/09/30 05:57:01;;;;;;;;;;;5.30;99.90;;;;;;5047884;28;20401;-76
2022/09/30 05:59:28;;;;;;;;;;;5.40;99.90;;;;;;5051940;28;20301;-77
2022/09/30 06:01:54;;;;;;;;;;;5.40;99.90;;;;;;5062032;28;20452;-77
2022/09/30 06:04:21;;;;;;;;;;;5.40;99.90;;;;;;5052798;28;19929;-77
2022/09/30 06:06:49;;;;;;;;;;;5.50;99.90;;;;;;5053187;28;19948;-76
2022/09/30 06:09:16;;;;;;;;;;;5.60;99.90;;;;;;5051245;28;19978;-78
2022/09/30 06:11:42;;;;;;;;;;;5.60;99.90;;;;;;5052096;28;19925;-77
2022/09/30 06:14:09;;;;;;;;;;;5.70;99.90;;;;;;5054834;28;20394;-77
2022/09/30 06:16:36;;;;;;;;;;;5.80;99.90;;;;;;5051353;28;19929;-77
2022/09/30 06:19:02;;;;;;;;;;;6.00;99.90;;;;;;5051075;28;19925;-77
2022/09/30 06:21:29;;;;;;;;;;;6.50;99.90;;;;;;5052071;28;19932;-77
2022/09/30 06:23:57;;;;;;;;;;;7.10;99.90;;;;;;5064045;28;20336;-78
2022/09/30 06:26:24;;;;;;;;;;;7.60;99.90;;;;;;5050007;28;19932;-78
2022/09/30 06:28:52;;;;;;;;;;;8.20;99.90;;;;;;5050461;28;19924;-77
2022/09/30 06:31:19;;;;;;;;;;;8.80;99.90;;;;;;5053321;28;20027;-78
2022/09/30 06:33:45;;;;;;;;;;;9.40;99.90;;;;;;5054068;28;19971;-79
2022/09/30 06:36:12;;;;;;;;;;;9.90;99.90;;;;;;5051057;28;19971;-78
2022/09/30 06:38:39;;;;;;;;;;;10.40;99.90;;;;;;5049636;28;20176;-77
2022/09/30 06:41:08;;;;;;;;;;;10.90;99.90;;;;;;5053973;28;19951;-78
2022/09/30 06:43:36;;;;;;;;;;;11.30;99.90;;;;;;5053133;28;19994;-78
2022/09/30 06:46:02;;;;;;;;;;;11.70;99.90;;;;;;5054580;28;19932;-78
2022/09/30 06:48:33;;;;;;;;;;;12.20;99.90;;;;;;5051830;28;19970;-78
2022/09/30 06:51:00;;;;;;;;;;;12.60;99.90;;;;;;5054130;28;19929;-80
2022/09/30 06:53:28;;;;;;;;;;;13.00;99.90;;;;;;5053008;28;19987;-77
2022/09/30 06:55:55;;;;;;;;;;;13.40;99.90;;;;;;5048869;28;19929;-77
2022/09/30 06:58:24;;;;;;;;;;;13.70;99.90;;;;;;5065331;28;20286;-78
2022/09/30 07:00:56;;;;;;;;;;;14.10;99.90;;;;;;5057223;28;19960;-78
2022/09/30 07:03:24;;;;;;;;;;;14.40;99.90;;;;;;5055823;28;19954;-78
2022/09/30 07:05:56;;;;;;;;;;;14.50;99.90;;;;;;5051995;28;20003;-76
2022/09/30 07:08:24;;;;;;;;;;;14.60;99.90;;;;;;5056997;28;20067;-79
2022/09/30 07:10:51;;;;;;;;;;;14.80;99.90;;;;;;5058883;28;19936;-76
2022/09/30 07:13:18;;;;;;;;;;;14.90;99.90;;;;;;5058350;28;19983;-77
2022/09/30 07:15:46;;;;;;;;;;;15.10;99.90;;;;;;5058016;28;19928;-77
2022/09/30 07:18:13;;;;;;;;;;;15.30;99.90;;;;;;5057687;28;19943;-77
2022/09/30 07:20:40;;;;;;;;;;;16.40;99.90;;;;;;5057610;28;19948;-77
2022/09/30 07:23:06;;;;;;;;;;;15.60;99.90;;;;;;5055389;28;19975;-77
2022/09/30 07:25:33;;;;;;;;;;;15.70;99.90;;;;;;5054103;28;20337;-77
2022/09/30 07:28:00;;;;;;;;;;;15.80;99.90;;;;;;5053247;28;19992;-77
2022/09/30 07:30:27;;;;;;;;;;;15.90;99.90;;;;;;5055897;28;19944;-78
2022/09/30 07:32:55;;;;;;;;;;;16.00;99.90;;;;;;5052103;28;19933;-78
2022/09/30 07:35:22;;;;;;;;;;;16.10;99.90;;;;;;5052871;28;19931;-78
2022/09/30 07:37:49;;;;;;;;;;;16.30;99.90;;;;;;5053403;28;19951;-78
2022/09/30 07:40:16;;;;;;;;;;;16.40;99.90;;;;;;5052671;28;19925;-78
2022/09/30 07:42:44;;;;;;;;;;;16.50;99.90;;;;;;5051731;28;19928;-77
2022/09/30 07:45:18;;;;;;;;;;;17.00;99.90;;;;;;5051253;28;19952;-76
2022/09/30 07:47:44;;;;;;;;;;;16.70;99.90;;;;;;5052287;28;19929;-78
2022/09/30 07:50:14;;;;;;;;;;;16.70;99.90;;;;;;5051793;28;19983;-78
2022/09/30 07:52:41;;;;;;;;;;;16.80;99.90;;;;;;5049557;28;19939;-78
2022/09/30 07:55:07;;;;;;;;;;;16.90;99.90;;;;;;5061672;28;19952;-77
2022/09/30 07:57:34;;;;;;;;;;;16.90;99.90;;;;;;5043994;28;19936;-78
2022/09/30 08:00:01;;;;;;;;;;;17.10;99.90;;;;;;5045637;28;19952;-78
2022/09/30 08:02:38;;;;;;;;;;;17.20;99.90;;;;;;5030812;28;19925;-77
2022/09/30 08:05:05;;;;;;;;;;;17.20;99.90;;;;;;5049961;28;20440;-77
2022/09/30 08:07:33;;;;;;;;;;;17.20;99.90;;;;;;5050373;28;19929;-78
2022/09/30 08:10:00;;;;;;;;;;;17.30;99.90;;;;;;5050438;28;19928;-78
2022/09/30 08:12:26;;;;;;;;;;;17.40;99.90;;;;;;5050046;28;19932;-78
2022/09/30 08:14:53;;;;;;;;;;;17.40;99.90;;;;;;5050062;28;19982;-77
2022/09/30 08:17:20;;;;;;;;;;;17.50;99.90;;;;;;5048599;28;19933;-78
2022/09/30 08:19:46;;;;;;;;;;;17.60;99.90;;;;;;5054660;28;19940;-78
2022/09/30 08:22:15;;;;;;;;;;;17.90;99.90;;;;;;5051129;28;19936;-77
2022/09/30 08:24:43;;;;;;;;;;;17.70;99.90;;;;;;5057630;28;20420;-78
2022/09/30 08:27:10;;;;;;;;;;;17.70;99.90;;;;;;5050251;28;19936;-78
2022/09/30 08:29:36;;;;;;;;;;;17.70;99.90;;;;;;5050360;28;19929;-78
2022/09/30 08:32:03;;;;;;;;;;;17.70;99.90;;;;;;5048648;28;19925;-78
2022/09/30 08:34:34;;;;;;;;;;;17.70;99.90;;;;;;5044962;28;19968;-77
2022/09/30 08:37:00;;;;;;;;;;;17.70;99.90;;;;;;5050019;28;20350;-77
2022/09/30 08:39:27;;;;;;;;;;;17.60;99.90;;;;;;5048025;28;19931;-77
2022/09/30 08:42:07;;;;;;;;;;;17.50;99.90;;;;;;5048707;28;20378;-77
2022/09/30 08:44:41;;;;;;;;;;;17.30;99.90;;;;;;5047525;28;19983;-77
2022/09/30 08:47:14;;;;;;;;;;;17.30;99.90;;;;;;5049314;28;20452;-77
2022/09/30 08:49:48;;;;;;;;;;;17.30;99.90;;;;;;5057583;28;20010;-77
2022/09/30 08:52:17;;;;;;;;;;;17.20;99.90;;;;;;5054219;28;20414;-77
2022/09/30 08:54:46;;;;;;;;;;;17.20;99.90;;;;;;5048171;28;20697;-77
2022/09/30 08:57:14;;;;;;;;;;;17.00;99.90;;;;;;5048669;28;19995;-77
2022/09/30 08:59:44;;;;;;;;;;;16.90;99.90;;;;;;5047879;28;19970;-77
2022/09/30 09:02:16;;;;;;;;;;;16.90;99.90;;;;;;5047401;28;20283;-77
2022/09/30 09:04:43;;;;;;;;;;;16.90;99.90;;;;;;5047744;28;19933;-77
2022/09/30 09:07:16;;;;;;;;;;;16.80;99.90;;;;;;5048383;28;19924;-77
2022/09/30 09:09:50;;;;;;;;;;;16.60;99.90;;;;;;5047822;28;20015;-77
2022/09/30 09:12:26;;;;;;;;;;;16.40;99.90;;;;;;5047672;28;19951;-77
2022/09/30 09:14:58;;;;;;;;;;;16.00;99.90;;;;;;5044665;28;19933;-78
2022/09/30 09:17:31;;;;;;;;;;;15.80;99.90;;;;;;5048152;28;19971;-77
2022/09/30 09:20:02;;;;;;;;;;;15.50;99.90;;;;;;5048977;28;19925;-76
2022/09/30 09:22:30;;;;;;;;;;;15.50;99.90;;;;;;5052160;28;19932;-76
2022/09/30 09:24:57;;;;;;;;;;;15.40;99.90;;;;;;5050296;28;20364;-75
2022/09/30 09:27:28;;;;;;;;;;;15.30;99.90;;;;;;5051268;28;19936;-75
2022/09/30 09:30:01;;;;;;;;;;;15.30;99.90;;;;;;5052589;28;20355;-76
2022/09/30 09:32:29;;;;;;;;;;;15.30;99.90;;;;;;5049121;28;19998;-75
2022/09/30 09:34:58;;;;;;;;;;;15.30;99.90;;;;;;5049639;28;19925;-77
2022/09/30 09:40:14;;;;;;;;;;;15.30;99.90;;;;;;5050294;28;20490;-77
2022/09/30 09:42:49;;;;;;;;;;;15.30;99.90;;;;;;5049961;28;19925;-76
2022/09/30 09:45:22;;;;;;;;;;;15.30;99.90;;;;;;5045085;28;19939;-76
2022/09/30 09:47:50;;;;;;;;;;;15.40;99.90;;;;;;5045228;28;19989;-77
2022/09/30 09:50:18;;;;;;;;;;;15.40;99.90;;;;;;5047257;28;19982;-76
2022/09/30 09:52:54;;;;;;;;;;;15.40;99.90;;;;;;5041524;28;19929;-76
2022/09/30 09:55:22;;;;;;;;;;;15.50;99.90;;;;;;5047452;28;19936;-76
2022/09/30 09:58:04;;;;;;;;;;;15.70;99.90;;;;;;5046902;28;19975;-76
2022/09/30 10:03:18;;;;;;;;;;;15.90;99.90;;;;;;5027356;28;19968;-76
2022/09/30 10:05:46;;;;;;;;;;;16.00;99.90;;;;;;5027715;28;19933;-76
2022/09/30 10:08:15;;;;;;;;;;;14.80;99.90;;;;;;5036556;28;19962;-76
2022/09/30 10:10:44;;;;;;;;;;;16.20;99.90;;;;;;5051829;28;19982;-76
2022/09/30 10:13:16;;;;;;;;;;;16.30;99.90;;;;;;5069188;28;19924;-75
2022/09/30 10:15:43;;;;;;;;;;;16.20;99.90;;;;;;5071058;28;19928;-76
2022/09/30 10:18:16;;;;;;;;;;;16.30;99.90;;;;;;5068434;28;19974;-76
2022/09/30 10:20:50;;;;;;;;;;;16.40;99.90;;;;;;5051911;28;20620;-77
2022/09/30 10:23:18;;;;;;;;;;;16.50;99.90;;;;;;5050660;28;20025;-76
2022/09/30 10:25:54;;;;;;;;;;;16.60;99.90;;;;;;5050644;28;19929;-76
2022/09/30 10:28:24;;;;;;;;;;;16.70;99.90;;;;;;5049557;28;20353;-76
2022/09/30 10:30:53;;;;;;;;;;;16.80;99.90;;;;;;5050952;28;20685;-76
2022/09/30 10:33:23;;;;;;;;;;;16.90;99.90;;;;;;5056683;28;20020;-76
2022/09/30 10:35:54;;;;;;;;;;;17.00;99.90;;;;;;5050935;28;20602;-76
2022/09/30 10:38:22;;;;;;;;;;;15.60;99.90;;;;;;5051127;28;19928;-76
2022/09/30 10:40:50;;;;;;;;;;;17.20;99.90;;;;;;5057220;28;19979;-76
2022/09/30 10:43:19;;;;;;;;;;;17.30;99.90;;;;;;5062277;28;19925;-76
2022/09/30 10:45:47;;;;;;;;;;;17.40;99.90;;;;;;5056145;28;19928;-76
2022/09/30 10:48:16;;;;;;;;;;;17.50;99.90;;;;;;5060799;28;19951;-77
2022/09/30 10:50:49;;;;;;;;;;;17.60;99.90;;;;;;5052568;28;19935;-76
2022/09/30 10:53:19;;;;;;;;;;;17.70;99.90;;;;;;5053673;28;19933;-77
2022/09/30 10:55:46;;;;;;;;;;;17.70;99.90;;;;;;5051644;28;19932;-77
2022/09/30 10:58:25;;;;;;;;;;;17.80;99.90;;;;;;5059147;28;19939;-77
2022/09/30 11:00:55;;;;;;;;;;;17.90;99.90;;;;;;5052730;28;19933;-78
2022/09/30 11:03:25;;;;;;;;;;;18.00;99.90;;;;;;5051519;28;19975;-77
2022/09/30 11:05:52;;;;;;;;;;;18.20;99.90;;;;;;5051122;28;19929;-77
2022/09/30 11:08:21;;;;;;;;;;;18.30;99.90;;;;;;5052443;28;19933;-76
2022/09/30 11:10:51;;;;;;;;;;;18.60;99.90;;;;;;5051091;28;19953;-78
2022/09/30 11:13:20;;;;;;;;;;;18.70;99.90;;;;;;5050824;28;20027;-77
2022/09/30 11:15:52;;;;;;;;;;;18.90;99.90;;;;;;5050943;28;19940;-77
2022/09/30 11:18:23;;;;;;;;;;;19.20;99.90;;;;;;5051982;28;20015;-77
2022/09/30 11:20:50;;;;;;;;;;;;;;;;;;5611201;22;19914;-77
2022/09/30 11:23:20;;;;;;;;;;;19.40;99.90;;;;;;5040823;28;20382;-76
2022/09/30 11:25:49;;;;;;;;;;;19.40;99.90;;;;;;5059513;28;20466;-78
2022/09/30 11:28:34;;;;;;;;;;;19.20;99.90;;;;;;5056085;28;19928;-75
2022/09/30 11:31:05;;;;;;;;;;;19.10;99.90;;;;;;5055795;28;19935;-76
2022/09/30 11:33:42;;;;;;;;;;;18.90;99.90;;;;;;5065260;28;20351;-75
2022/09/30 11:36:15;;;;;;;;;;;18.80;99.90;;;;;;5058763;28;20303;-76
2022/09/30 11:38:52;;;;;;;;;;;18.70;99.90;;;;;;5059464;28;20308;-76
2022/09/30 11:41:23;;;;;;;;;;;18.90;99.90;;;;;;5054961;28;19929;-76
2022/09/30 11:43:54;;;;;;;;;;;19.10;99.90;;;;;;5049426;28;19936;-76
2022/09/30 11:46:40;;;;;;;;;;;19.20;99.90;;;;;;5061081;28;20259;-75
2022/09/30 11:49:15;;;;;;;;;;;19.40;99.90;;;;;;5063843;28;19929;-75
2022/09/30 11:51:47;;;;;;;;;;;19.50;99.90;;;;;;5018356;28;19932;-75
2022/09/30 11:54:23;;;;;;;;;;;19.50;99.90;;;;;;5045827;28;19929;-76
2022/09/30 11:56:53;;;;;;;;;;;19.40;99.90;;;;;;5047858;28;19940;-77
2022/09/30 11:59:23;;;;;;;;;;;19.40;99.90;;;;;;5063440;28;20431;-76
2022/09/30 12:01:52;;;;;;;;;;;19.50;99.90;;;;;;5055333;28;19951;-77
2022/09/30 12:04:22;;;;;;;;;;;19.60;99.90;;;;;;5031469;28;20578;-76
2022/09/30 12:06:50;;;;;;;;;;;19.70;99.90;;;;;;5032137;28;19942;-77
2022/09/30 12:09:20;;;;;;;;;;;19.90;99.90;;;;;;5067014;28;19978;-77
2022/09/30 12:11:50;;;;;;;;;;;20.00;99.90;;;;;;5036333;28;20595;-76
2022/09/30 12:14:20;;;;;;;;;;;20.10;99.90;;;;;;5059412;28;20552;-76
2022/09/30 12:16:49;;;;;;;;;;;20.10;99.90;;;;;;5051042;28;19929;-75
2022/09/30 12:19:19;;;;;;;;;;;20.00;99.90;;;;;;5043828;28;19924;-77
2022/09/30 12:21:52;;;;;;;;;;;20.10;99.90;;;;;;5071548;28;20428;-77
2022/09/30 12:24:22;;;;;;;;;;;20.20;99.90;;;;;;5067914;28;19933;-76
2022/09/30 12:26:49;;;;;;;;;;;20.40;99.90;;;;;;5051857;28;20023;-76
2022/09/30 12:32:08;;;;;;;;;;;20.70;99.90;;;;;;5052683;28;19920;-77
2022/09/30 12:34:42;;;;;;;;;;;20.80;99.90;;;;;;5059012;28;19928;-77
2022/09/30 12:37:20;;;;;;;;;;;20.90;99.90;;;;;;5048843;28;20008;-77
2022/09/30 12:39:47;;;;;;;;;;;;;;;;;;5044936;28;19978;-77
2022/09/30 12:42:30;;;;;;;;;;;21.10;99.90;;;;;;5057485;28;19925;-77
2022/09/30 12:45:08;;;;;;;;;;;21.10;99.90;;;;;;5052187;28;20394;-77
2022/09/30 12:47:38;;;;;;;;;;;21.00;99.90;;;;;;5052283;28;20423;-77
2022/09/30 12:50:07;;;;;;;;;;;20.90;99.90;;;;;;5059471;28;19928;-76
2022/09/30 12:52:37;;;;;;;;;;;20.90;99.90;;;;;;5051996;28;20397;-77
2022/09/30 12:55:07;;;;;;;;;;;20.70;99.90;;;;;;5054921;28;20481;-77
2022/09/30 12:57:36;;;;;;;;;;;20.60;99.90;;;;;;5048941;28;19928;-77
2022/09/30 13:00:06;;;;;;;;;;;20.70;99.90;;;;;;5049865;28;19948;-77
2022/09/30 13:02:35;;;;;;;;;;;20.60;99.90;;;;;;5056260;28;19936;-77
2022/09/30 13:05:22;;;;;;;;;;;20.40;99.90;;;;;;5045955;28;20537;-76
2022/09/30 13:08:04;;;;;;;;;;;20.20;99.90;;;;;;5062433;28;19936;-75
2022/09/30 13:10:32;;;;;;;;;;;20.00;99.90;;;;;;5050529;28;19932;-77
2022/09/30 13:13:15;;;;;;;;;;;19.90;99.90;;;;;;5042298;28;19924;-77
2022/09/30 13:15:43;;;;;;;;;;;19.80;99.90;;;;;;5067833;28;19929;-77
2022/09/30 13:18:25;;;;;;;;;;;19.80;99.90;;;;;;5038742;28;20000;-77
2022/09/30 13:20:53;;;;;;;;;;;19.90;99.90;;;;;;5042790;28;20015;-77
2022/09/30 13:23:35;;;;;;;;;;;20.10;99.90;;;;;;5059429;28;19924;-77
2022/09/30 13:26:06;;;;;;;;;;;20.40;99.90;;;;;;5065452;28;19924;-74
2022/09/30 13:28:37;;;;;;;;;;;20.60;99.90;;;;;;5050994;28;20023;-77
2022/09/30 13:31:11;;;;;;;;;;;20.70;99.90;;;;;;5044664;28;19931;-75
2022/09/30 13:33:43;;;;;;;;;;;20.50;99.90;;;;;;5033144;28;19932;-76
2022/09/30 13:36:34;;;;;;;;;;;20.30;99.90;;;;;;5042867;28;20476;-76
2022/09/30 13:39:18;;;;;;;;;;;20.10;99.90;;;;;;5032926;28;19964;-75
2022/09/30 13:41:48;;;;;;;;;;;20.10;99.90;;;;;;5046685;28;20380;-78
2022/09/30 13:44:16;;;;;;;;;;;20.20;99.90;;;;;;5042668;28;19931;-77
2022/09/30 13:46:47;;;;;;;;;;;20.10;99.90;;;;;;5046881;28;19982;-78
2022/09/30 13:49:17;;;;;;;;;;;19.90;99.90;;;;;;5052078;28;19925;-76
2022/09/30 13:51:44;;;;;;;;;;;19.60;99.90;;;;;;5050928;28;20015;-77
2022/09/30 13:54:14;;;;;;;;;;;19.40;99.90;;;;;;5054023;28;19932;-77
2022/09/30 13:56:42;;;;;;;;;;;19.20;99.90;;;;;;5051532;28;19937;-77
2022/09/30 13:59:34;;;;;;;;;;;19.10;99.90;;;;;;5046062;28;20408;-77
2022/09/30 14:02:16;;;;;;;;;;;19.20;99.90;;;;;;5048785;28;20370;-76
2022/09/30 14:05:12;;;;;;;;;;;19.40;99.90;;;;;;5031437;28;19939;-76
2022/09/30 14:07:46;;;;;;;;;;;19.40;99.90;;;;;;5001695;28;19936;-76
2022/09/30 14:10:33;;;;;;;;;;;19.50;99.90;;;;;;5051460;28;19955;-76
2022/09/30 14:13:08;;;;;;;;;;;19.50;99.90;;;;;;5044731;28;20006;-76
2022/09/30 14:16:00;;;;;;;;;;;19.50;99.90;;;;;;5051906;28;19925;-76
2022/09/30 14:18:37;;;;;;;;;;;19.50;99.90;;;;;;5031640;28;19931;-76
2022/09/30 14:21:15;;;;;;;;;;;19.50;99.90;;;;;;5051134;28;19974;-75
2022/09/30 14:23:43;;;;;;;;;;;19.50;99.90;;;;;;5046835;28;20007;-75
2022/09/30 14:26:15;;;;;;;;;;;19.50;99.90;;;;;;5031756;28;19928;-75
2022/09/30 14:28:44;;;;;;;;;;;19.50;99.90;;;;;;5051673;28;19940;-76
2022/09/30 14:31:13;;;;;;;;;;;19.50;99.90;;;;;;5051441;28;19933;-76
2022/09/30 14:33:42;;;;;;;;;;;19.30;99.90;;;;;;5052116;28;19983;-75
2022/09/30 14:36:12;;;;;;;;;;;19.10;99.90;;;;;;5051854;28;19964;-75
2022/09/30 14:38:42;;;;;;;;;;;19.00;99.90;;;;;;5050799;28;20001;-77
2022/09/30 14:41:14;;;;;;;;;;;18.70;99.90;;;;;;5051004;28;19928;-76
2022/09/30 14:43:43;;;;;;;;;;;18.50;99.90;;;;;;5053661;28;19924;-76
2022/09/30 14:46:15;;;;;;;;;;;18.30;99.90;;;;;;5061632;28;19929;-76
2022/09/30 14:48:44;;;;;;;;;;;18.30;99.90;;;;;;5066674;28;20002;-76